createdAt,value
2018-10-04T00:02:21.207Z,4.80
2018-10-04T00:04:50.272Z,4.40
2018-10-04T00:07:19.768Z,3.47
2018-10-04T00:09:48.870Z,1.83
2018-10-04T00:12:17.916Z,2.37
2018-10-04T00:14:48.024Z,2.90
2018-10-04T00:17:17.098Z,2.37
2018-10-04T00:19:46.265Z,2.77
2018-10-04T00:22:15.331Z,1.70
2018-10-04T00:24:44.336Z,1.30
2018-10-04T00:27:13.444Z,1.27
2018-10-04T00:29:42.465Z,1.33
2018-10-04T00:32:11.548Z,1.47
2018-10-04T00:34:40.580Z,1.30
2018-10-04T00:37:09.767Z,1.47
2018-10-04T00:39:38.884Z,1.73
2018-10-04T00:42:07.942Z,1.10
2018-10-04T00:44:37.225Z,1.70
2018-10-04T00:47:10.370Z,1.20
2018-10-04T00:49:39.476Z,1.40
2018-10-04T00:52:09.403Z,2.07
2018-10-04T00:54:38.502Z,1.87
2018-10-04T00:57:07.587Z,2.00
2018-10-04T00:59:36.711Z,1.70
2018-10-04T01:02:05.752Z,1.77
2018-10-04T01:04:34.809Z,2.03
2018-10-04T01:07:03.790Z,1.57
2018-10-04T01:09:32.893Z,2.40
2018-10-04T01:12:02.168Z,1.97
2018-10-04T01:14:31.243Z,2.70
2018-10-04T01:17:00.311Z,1.70
2018-10-04T01:19:30.212Z,1.70
2018-10-04T01:21:59.341Z,2.13
2018-10-04T01:24:28.484Z,2.43
2018-10-04T01:26:57.516Z,2.50
2018-10-04T01:29:26.625Z,1.97
2018-10-04T01:31:55.742Z,2.03
2018-10-04T01:34:24.886Z,2.40
2018-10-04T01:36:53.938Z,2.00
2018-10-04T01:39:23.052Z,2.00
2018-10-04T01:41:52.089Z,2.17
2018-10-04T01:44:22.345Z,1.83
2018-10-04T01:46:51.381Z,1.57
2018-10-04T01:49:20.459Z,1.87
2018-10-04T01:51:49.567Z,1.80
2018-10-04T01:54:18.630Z,2.60
2018-10-04T01:56:47.697Z,1.90
2018-10-04T01:59:16.844Z,2.63
2018-10-04T02:01:45.981Z,2.37
2018-10-04T02:04:15.042Z,1.90
2018-10-04T02:06:44.167Z,2.30
2018-10-04T02:09:13.179Z,1.70
2018-10-04T02:11:42.302Z,1.83
2018-10-04T02:14:11.357Z,1.73
2018-10-04T02:16:40.320Z,2.13
2018-10-04T02:19:09.436Z,2.50
2018-10-04T02:21:38.410Z,1.93
2018-10-04T02:24:07.442Z,2.00
2018-10-04T02:26:36.459Z,2.27
2018-10-04T02:29:05.697Z,2.10
2018-10-04T02:31:35.235Z,2.17
2018-10-04T02:34:04.281Z,1.90
2018-10-04T02:36:33.267Z,2.00
2018-10-04T02:39:02.344Z,1.83
2018-10-04T02:41:31.380Z,1.20
2018-10-04T02:44:00.486Z,1.63
2018-10-04T02:46:29.474Z,1.63
2018-10-04T02:48:58.756Z,1.73
2018-10-04T02:51:27.614Z,1.73
2018-10-04T02:53:56.579Z,1.80
2018-10-04T02:56:30.758Z,1.50
2018-10-04T02:58:59.950Z,2.00
2018-10-04T03:01:28.972Z,3.07
2018-10-04T03:03:58.272Z,1.87
2018-10-04T03:06:27.367Z,1.70
2018-10-04T03:08:56.372Z,2.10
2018-10-04T03:11:25.347Z,1.80
2018-10-04T03:13:54.409Z,1.43
2018-10-04T03:16:23.400Z,1.63
2018-10-04T03:18:52.559Z,2.00
2018-10-04T03:21:21.686Z,1.97
2018-10-04T03:23:50.714Z,1.97
2018-10-04T03:26:19.977Z,1.93
2018-10-04T03:28:48.982Z,2.33
2018-10-04T03:31:18.139Z,5.37
2018-10-04T03:33:47.167Z,5.77
2018-10-04T03:36:16.294Z,3.30
2018-10-04T03:38:45.456Z,3.70
2018-10-04T03:41:14.625Z,2.97
2018-10-04T03:43:43.669Z,2.60
2018-10-04T03:46:12.718Z,4.00
2018-10-04T03:48:42.406Z,3.13
2018-10-04T03:51:11.448Z,2.87
2018-10-04T03:53:40.433Z,2.03
2018-10-04T03:56:09.595Z,1.93
2018-10-04T03:58:38.956Z,2.23
2018-10-04T04:01:08.115Z,2.13
2018-10-04T04:03:37.098Z,2.50
2018-10-04T04:06:06.080Z,2.43
2018-10-04T04:08:35.286Z,1.80
2018-10-04T04:11:04.410Z,1.90
2018-10-04T04:13:33.460Z,1.90
2018-10-04T04:16:02.495Z,2.27
2018-10-04T04:18:31.488Z,2.67
2018-10-04T04:21:00.553Z,2.03
2018-10-04T04:23:29.627Z,2.07
2018-10-04T04:25:58.839Z,1.90
2018-10-04T04:28:27.809Z,1.90
2018-10-04T04:30:56.834Z,2.07
2018-10-04T04:33:25.821Z,2.20
2018-10-04T04:35:54.780Z,2.20
2018-10-04T04:38:23.887Z,2.40
2018-10-04T04:40:52.949Z,2.53
2018-10-04T04:43:22.326Z,2.57
2018-10-04T04:45:51.366Z,1.80
2018-10-04T04:48:21.273Z,1.43
2018-10-04T04:50:50.302Z,1.70
2018-10-04T04:53:30.208Z,2.03
2018-10-04T04:55:59.145Z,1.80
2018-10-04T04:58:28.217Z,3.17
2018-10-04T05:00:57.211Z,7.23
2018-10-04T05:03:26.244Z,5.23
2018-10-04T05:05:55.429Z,2.93
2018-10-04T05:08:24.839Z,3.00
2018-10-04T05:10:53.917Z,2.40
2018-10-04T05:13:22.922Z,2.10
2018-10-04T05:15:51.933Z,1.47
2018-10-04T05:18:20.882Z,2.70
2018-10-04T05:20:49.924Z,3.30
2018-10-04T05:23:19.002Z,2.73
2018-10-04T05:25:47.990Z,3.30
2018-10-04T05:28:17.059Z,2.00
2018-10-04T05:30:46.112Z,2.30
2018-10-04T05:33:15.159Z,2.50
2018-10-04T05:35:44.211Z,2.17
2018-10-04T05:38:13.294Z,2.47
2018-10-04T05:40:42.279Z,1.87
2018-10-04T05:43:11.347Z,2.07
2018-10-04T05:45:40.456Z,10.83
2018-10-04T05:48:09.633Z,7.13
2018-10-04T05:50:38.660Z,6.73
2018-10-04T05:53:07.861Z,5.30
2018-10-04T05:55:36.937Z,5.30
2018-10-04T05:58:05.946Z,4.77
2018-10-04T06:00:38.450Z,4.27
2018-10-04T06:03:07.661Z,3.90
2018-10-04T06:05:36.768Z,3.10
2018-10-04T06:08:05.876Z,4.40
2018-10-04T06:10:35.281Z,5.37
2018-10-04T06:13:04.341Z,4.57
2018-10-04T06:15:33.434Z,4.03
2018-10-04T06:18:02.468Z,2.87
2018-10-04T06:20:34.317Z,2.60
2018-10-04T06:23:03.321Z,2.77
2018-10-04T06:25:32.458Z,3.10
2018-10-04T06:28:01.486Z,3.90
2018-10-04T06:30:30.648Z,2.50
2018-10-04T06:32:59.653Z,3.07
2018-10-04T06:35:28.735Z,2.83
2018-10-04T06:37:57.827Z,2.97
2018-10-04T06:40:27.166Z,2.67
2018-10-04T06:42:56.179Z,2.97
2018-10-04T06:45:25.166Z,2.50
2018-10-04T06:47:54.287Z,2.57
2018-10-04T06:50:23.316Z,3.27
2018-10-04T06:52:52.421Z,3.50
2018-10-04T06:55:21.389Z,3.30
2018-10-04T06:57:50.505Z,4.77
2018-10-04T07:00:19.479Z,4.40
2018-10-04T07:02:48.620Z,4.80
2018-10-04T07:05:17.718Z,5.90
2018-10-04T07:07:46.751Z,6.80
2018-10-04T07:10:15.926Z,5.47
2018-10-04T07:12:44.980Z,5.10
2018-10-04T07:15:13.978Z,6.63
2018-10-04T07:17:43.070Z,8.60
2018-10-04T07:20:12.097Z,8.23
2018-10-04T07:22:41.184Z,4.27
2018-10-04T07:25:10.220Z,4.57
2018-10-04T07:27:39.249Z,3.23
2018-10-04T07:30:08.505Z,3.80
2018-10-04T07:32:37.733Z,3.30
2018-10-04T07:35:06.820Z,3.30
2018-10-04T07:37:36.233Z,4.30
2018-10-04T07:40:05.566Z,3.67
2018-10-04T07:42:34.793Z,4.37
2018-10-04T07:45:03.896Z,3.30
2018-10-04T07:47:32.955Z,2.57
2018-10-04T07:50:01.995Z,3.00
2018-10-04T07:52:31.090Z,2.97
2018-10-04T07:55:00.187Z,3.00
2018-10-04T07:57:29.235Z,2.43
2018-10-04T07:59:58.359Z,2.20
2018-10-04T08:02:27.407Z,2.80
2018-10-04T08:04:56.621Z,2.13
2018-10-04T08:07:25.576Z,1.90
2018-10-04T08:09:54.622Z,2.50
2018-10-04T08:12:23.650Z,2.90
2018-10-04T08:14:52.718Z,2.27
2018-10-04T08:17:21.704Z,1.87
2018-10-04T08:19:50.731Z,1.70
2018-10-04T08:22:19.873Z,1.90
2018-10-04T08:24:48.958Z,2.27
2018-10-04T08:27:18.502Z,2.43
2018-10-04T08:29:47.605Z,1.77
2018-10-04T08:32:16.638Z,1.63
2018-10-04T08:34:46.166Z,1.70
2018-10-04T08:37:15.341Z,1.83
2018-10-04T08:39:44.489Z,1.80
2018-10-04T08:42:13.555Z,1.70
2018-10-04T08:44:42.563Z,1.80
2018-10-04T08:47:11.626Z,1.60
2018-10-04T08:49:40.642Z,1.63
2018-10-04T08:52:14.713Z,1.87
2018-10-04T08:54:43.685Z,1.63
2018-10-04T08:57:12.927Z,1.43
2018-10-04T08:59:42.044Z,1.50
2018-10-04T09:02:11.179Z,2.87
2018-10-04T09:04:40.164Z,2.40
2018-10-04T09:07:09.236Z,2.10
2018-10-04T09:09:38.291Z,1.80
2018-10-04T09:12:07.443Z,1.80
2018-10-04T09:14:36.430Z,1.87
2018-10-04T09:17:05.478Z,1.43
2018-10-04T09:19:34.426Z,1.70
2018-10-04T09:22:03.597Z,3.90
2018-10-04T09:24:32.696Z,2.40
2018-10-04T09:27:01.731Z,1.73
2018-10-04T09:29:30.776Z,1.40
2018-10-04T09:31:59.934Z,1.40
2018-10-04T09:34:29.048Z,1.33
2018-10-04T09:36:58.119Z,1.50
2018-10-04T09:39:27.132Z,1.30
2018-10-04T09:41:56.200Z,2.07
2018-10-04T09:44:25.220Z,1.87
2018-10-04T09:46:54.300Z,1.90
2018-10-04T09:49:23.865Z,2.10
2018-10-04T09:51:58.029Z,2.73
2018-10-04T09:54:32.066Z,1.50
2018-10-04T09:57:01.126Z,1.77
2018-10-04T09:59:30.174Z,1.73
2018-10-04T10:02:04.247Z,1.87
2018-10-04T10:04:33.353Z,3.50
2018-10-04T10:07:02.401Z,2.40
2018-10-04T10:09:31.504Z,2.13
2018-10-04T10:12:00.557Z,1.77
2018-10-04T10:14:29.712Z,1.97
2018-10-04T10:16:58.773Z,1.60
2018-10-04T10:19:27.820Z,2.00
2018-10-04T10:21:56.809Z,1.97
2018-10-04T10:24:25.870Z,2.50
2018-10-04T10:26:54.912Z,1.57
2018-10-04T10:29:23.931Z,1.27
2018-10-04T10:31:52.929Z,1.50
2018-10-04T10:34:22.025Z,0.90
2018-10-04T10:36:52.289Z,1.50
2018-10-04T10:39:21.382Z,1.20
2018-10-04T10:41:50.418Z,2.23
2018-10-04T10:44:19.478Z,1.40
2018-10-04T10:46:48.497Z,1.00
2018-10-04T10:49:17.658Z,1.17
2018-10-04T10:51:46.722Z,1.40
2018-10-04T10:54:15.675Z,1.20
2018-10-04T10:56:44.829Z,1.10
2018-10-04T10:59:14.973Z,2.40
2018-10-04T11:01:44.032Z,0.70
2018-10-04T11:04:13.095Z,1.07
2018-10-04T11:06:42.137Z,2.23
2018-10-04T11:09:11.422Z,1.00
2018-10-04T11:11:40.556Z,1.13
2018-10-04T11:14:10.340Z,1.10
2018-10-04T11:16:39.345Z,0.80
2018-10-04T11:19:08.429Z,1.00
2018-10-04T11:21:37.497Z,1.90
2018-10-04T11:24:06.709Z,1.00
2018-10-04T11:26:35.752Z,1.10
2018-10-04T11:29:04.801Z,1.83
2018-10-04T11:31:33.882Z,1.70
2018-10-04T11:34:03.720Z,1.50
2018-10-04T11:36:33.910Z,0.90
2018-10-04T11:39:02.999Z,1.10
2018-10-04T11:41:32.105Z,0.93
2018-10-04T11:44:05.416Z,1.70
2018-10-04T11:46:34.717Z,1.50
2018-10-04T11:49:03.795Z,1.00
2018-10-04T11:51:32.898Z,0.70
2018-10-04T11:54:02.105Z,1.77
2018-10-04T11:56:31.595Z,0.43
2018-10-04T11:59:00.813Z,0.67
2018-10-04T12:01:30.023Z,0.70
2018-10-04T12:03:59.127Z,0.50
2018-10-04T12:06:28.285Z,0.93
2018-10-04T12:08:57.513Z,0.70
2018-10-04T12:11:26.856Z,0.83
2018-10-04T12:13:56.266Z,1.10
2018-10-04T12:16:25.436Z,0.60
2018-10-04T12:18:54.586Z,1.30
2018-10-04T12:21:23.824Z,1.10
2018-10-04T12:23:53.083Z,0.60
2018-10-04T12:26:22.258Z,1.50
2018-10-04T12:28:51.406Z,1.73
2018-10-04T12:31:20.693Z,0.63
2018-10-04T12:33:50.489Z,0.90
2018-10-04T12:36:21.083Z,0.83
2018-10-04T12:38:50.737Z,0.70
2018-10-04T12:41:20.285Z,1.07
2018-10-04T12:43:50.583Z,1.43
2018-10-04T12:46:19.918Z,0.80
2018-10-04T12:48:49.018Z,0.80
2018-10-04T12:51:18.307Z,1.00
2018-10-04T12:53:48.298Z,1.57
2018-10-04T12:56:17.599Z,2.10
2018-10-04T12:58:48.911Z,2.20
2018-10-04T13:01:18.757Z,0.60
2018-10-04T13:03:48.661Z,0.80
2018-10-04T13:06:19.023Z,1.13
2018-10-04T13:08:48.921Z,0.93
2018-10-04T13:11:19.665Z,1.00
2018-10-04T13:13:51.066Z,1.03
2018-10-04T13:16:20.333Z,1.40
2018-10-04T13:18:49.549Z,0.80
2018-10-04T13:21:20.105Z,1.00
2018-10-04T13:23:49.227Z,0.70
2018-10-04T13:26:18.440Z,1.60
2018-10-04T13:28:47.602Z,1.00
2018-10-04T13:31:16.672Z,0.77
2018-10-04T13:33:46.636Z,1.00
2018-10-04T13:36:15.736Z,1.70
2018-10-04T13:38:44.775Z,0.80
2018-10-04T13:41:14.003Z,1.27
2018-10-04T13:43:43.330Z,0.83
2018-10-04T13:46:12.646Z,0.60
2018-10-04T13:48:42.689Z,0.73
2018-10-04T13:51:11.883Z,0.97
2018-10-04T13:53:40.994Z,0.70
2018-10-04T13:56:10.123Z,0.97
2018-10-04T13:58:39.947Z,3.13
2018-10-04T14:01:09.116Z,0.80
2018-10-04T14:03:38.108Z,1.20
2018-10-04T14:06:07.186Z,1.10
2018-10-04T14:08:36.330Z,1.57
2018-10-04T14:11:05.432Z,1.20
2018-10-04T14:13:34.599Z,0.53
2018-10-04T14:16:03.741Z,1.00
2018-10-04T14:18:33.759Z,0.80
2018-10-04T14:21:02.776Z,0.90
2018-10-04T14:23:31.874Z,1.00
2018-10-04T14:26:00.914Z,0.83
2018-10-04T14:28:29.985Z,0.90
2018-10-04T14:30:59.063Z,0.60
2018-10-04T14:33:28.103Z,1.00
2018-10-04T14:35:57.251Z,0.83
2018-10-04T14:38:26.309Z,0.70
2018-10-04T14:40:55.403Z,0.70
2018-10-04T14:43:24.436Z,1.40
2018-10-04T14:45:53.539Z,0.70
2018-10-04T14:48:22.704Z,0.73
2018-10-04T14:50:51.854Z,1.20
2018-10-04T14:53:20.933Z,1.30
2018-10-04T14:55:50.051Z,1.30
2018-10-04T14:58:19.277Z,1.53
2018-10-04T15:00:48.686Z,1.43
2018-10-04T15:03:17.772Z,1.33
2018-10-04T15:05:46.973Z,1.23
2018-10-04T15:08:16.049Z,6.33
2018-10-04T15:10:45.217Z,2.60
2018-10-04T15:13:14.448Z,21.80
2018-10-04T15:15:43.591Z,17.40
2018-10-04T15:18:12.920Z,4.73
2018-10-04T15:20:42.032Z,2.50
2018-10-04T15:23:11.347Z,1.43
2018-10-04T15:25:40.466Z,2.80
2018-10-04T15:28:09.471Z,9.50
2018-10-04T15:30:38.565Z,5.70
2018-10-04T15:33:07.767Z,4.20
2018-10-04T15:35:36.793Z,4.47
2018-10-04T15:38:06.295Z,4.13
2018-10-04T15:40:35.388Z,2.77
2018-10-04T15:43:04.561Z,1.57
2018-10-04T15:45:33.552Z,1.50
2018-10-04T15:48:02.855Z,16.00
2018-10-04T15:50:33.072Z,44.53
2018-10-04T15:53:02.130Z,36.93
2018-10-04T15:55:31.215Z,31.77
2018-10-04T15:58:00.429Z,29.20
2018-10-04T16:00:29.881Z,18.43
2018-10-04T16:02:59.014Z,18.97
2018-10-04T16:05:28.211Z,16.93
2018-10-04T16:07:57.354Z,14.30
2018-10-04T16:10:26.468Z,19.30
2018-10-04T16:12:56.580Z,9.80
2018-10-04T16:15:31.687Z,2.77
2018-10-04T16:18:00.786Z,2.30
2018-10-04T16:20:30.709Z,1.70
2018-10-04T16:23:00.044Z,1.40
2018-10-04T16:25:29.278Z,2.10
2018-10-04T16:27:59.311Z,2.03
2018-10-04T16:30:28.292Z,0.97
2018-10-04T16:35:48.051Z,3.40
2018-10-04T16:38:17.355Z,2.07
2018-10-04T16:40:46.628Z,1.60
2018-10-04T16:43:15.848Z,1.73
2018-10-04T16:45:45.885Z,1.10
2018-10-04T16:48:15.616Z,1.10
2018-10-04T16:50:44.803Z,1.80
2018-10-04T16:53:13.846Z,2.00
2018-10-04T16:55:42.941Z,8.00
2018-10-04T16:58:12.202Z,7.90
2018-10-04T17:00:41.459Z,3.20
2018-10-04T17:03:10.714Z,2.80
2018-10-04T17:05:42.992Z,2.50
2018-10-04T17:08:18.652Z,1.30
2018-10-04T17:10:49.955Z,4.90
2018-10-04T17:15:56.300Z,4.37
2018-10-04T17:18:25.422Z,3.20
2018-10-04T17:20:54.563Z,2.63
2018-10-04T17:23:23.657Z,2.23
2018-10-04T17:25:52.782Z,2.20
2018-10-04T17:28:22.075Z,3.40
2018-10-04T17:30:51.599Z,2.30
2018-10-04T17:33:20.857Z,2.00
2018-10-04T17:35:53.122Z,2.13
2018-10-04T17:38:22.964Z,1.47
2018-10-04T17:40:52.329Z,1.53
2018-10-04T17:43:21.582Z,3.03
2018-10-04T17:45:50.618Z,6.40
2018-10-04T17:48:19.679Z,11.23
2018-10-04T17:50:48.833Z,8.90
2018-10-04T17:53:19.646Z,3.20
2018-10-04T17:55:49.790Z,2.10
2018-10-04T17:58:19.025Z,2.60
2018-10-04T18:00:49.465Z,3.27
2018-10-04T18:03:19.009Z,5.40
2018-10-04T18:05:48.150Z,14.30
2018-10-04T18:08:17.308Z,8.70
2018-10-04T18:10:46.601Z,5.83
2018-10-04T18:13:15.801Z,5.90
2018-10-04T18:15:44.916Z,5.70
2018-10-04T18:18:15.169Z,3.20
2018-10-04T18:20:44.478Z,2.20
2018-10-04T18:23:15.292Z,1.60
2018-10-04T18:25:46.980Z,2.23
2018-10-04T18:28:16.915Z,2.07
2018-10-04T18:30:49.031Z,2.27
2018-10-04T18:33:19.791Z,2.07
2018-10-04T18:35:50.897Z,1.83
2018-10-04T18:38:22.236Z,2.57
2018-10-04T18:40:52.808Z,2.93
2018-10-04T18:43:23.389Z,1.93
2018-10-04T18:45:58.094Z,1.80
2018-10-04T18:48:29.421Z,2.00
2018-10-04T18:50:59.470Z,1.80
2018-10-04T18:53:30.467Z,1.67
2018-10-04T18:56:01.328Z,1.40
2018-10-04T18:58:30.624Z,1.87
2018-10-04T19:01:00.434Z,2.07
2018-10-04T19:03:31.049Z,2.20
2018-10-04T19:06:00.212Z,1.53
2018-10-04T19:08:30.060Z,1.73
2018-10-04T19:10:59.278Z,1.60
2018-10-04T19:13:28.707Z,2.17
2018-10-04T19:15:58.100Z,1.87
2018-10-04T19:18:34.649Z,1.53
2018-10-04T19:21:03.919Z,2.57
2018-10-04T19:23:33.054Z,1.70
2018-10-04T19:26:02.621Z,1.80
2018-10-04T19:28:32.290Z,1.50
2018-10-04T19:31:01.646Z,1.57
2018-10-04T19:33:30.740Z,1.27
2018-10-04T19:36:00.719Z,1.50
2018-10-04T19:38:29.961Z,1.90
2018-10-04T19:40:59.078Z,1.90
2018-10-04T19:43:28.409Z,1.87
2018-10-04T19:45:59.017Z,1.57
2018-10-04T19:48:28.178Z,1.90
2018-10-04T19:50:57.412Z,1.97
2018-10-04T19:53:27.365Z,1.50
2018-10-04T19:55:56.485Z,1.50
2018-10-04T19:58:26.093Z,1.77
2018-10-04T20:00:56.011Z,1.70
2018-10-04T20:03:25.152Z,2.07
2018-10-04T20:05:54.266Z,1.90
2018-10-04T20:08:23.417Z,2.50
2018-10-04T20:10:53.181Z,2.13
2018-10-04T20:13:22.212Z,1.80
2018-10-04T20:15:51.442Z,1.60
2018-10-04T20:18:20.547Z,2.17
2018-10-04T20:20:49.671Z,1.87
2018-10-04T20:23:19.220Z,1.67
2018-10-04T20:25:48.779Z,2.10
2018-10-04T20:28:18.341Z,2.77
2018-10-04T20:30:47.748Z,1.87
2018-10-04T20:33:17.394Z,2.07
2018-10-04T20:35:47.503Z,2.20
2018-10-04T20:38:16.610Z,1.97
2018-10-04T20:40:45.720Z,1.87
2018-10-04T20:43:14.769Z,1.53
2018-10-04T20:45:43.904Z,1.97
2018-10-04T20:48:13.252Z,1.70
2018-10-04T20:50:42.360Z,2.07
2018-10-04T20:53:11.442Z,2.53
2018-10-04T20:55:40.753Z,2.27
2018-10-04T20:58:09.791Z,2.00
2018-10-04T21:00:38.989Z,2.40
2018-10-04T21:03:08.753Z,2.20
2018-10-04T21:05:37.828Z,2.10
2018-10-04T21:08:06.987Z,1.67
2018-10-04T21:10:36.090Z,2.27
2018-10-04T21:13:05.104Z,2.30
2018-10-04T21:15:34.298Z,2.03
2018-10-04T21:18:03.626Z,1.90
2018-10-04T21:20:32.678Z,2.70
2018-10-04T21:23:02.057Z,2.43
2018-10-04T21:25:31.045Z,1.90
2018-10-04T21:28:00.147Z,2.30
2018-10-04T21:30:29.169Z,2.13
2018-10-04T21:32:58.460Z,1.93
2018-10-04T21:35:27.526Z,1.97
2018-10-04T21:37:56.631Z,2.20
2018-10-04T21:40:25.640Z,2.13
2018-10-04T21:42:54.692Z,2.90
2018-10-04T21:45:23.705Z,3.00
2018-10-04T21:47:53.012Z,2.40
2018-10-04T21:50:22.199Z,2.03
2018-10-04T21:52:51.508Z,2.77
2018-10-04T21:55:20.833Z,3.17
2018-10-04T21:57:49.997Z,2.70
2018-10-04T22:00:19.198Z,2.30
2018-10-04T22:02:48.460Z,2.13
2018-10-04T22:05:17.542Z,2.73
2018-10-04T22:07:46.592Z,2.73
2018-10-04T22:10:15.695Z,2.80
2018-10-04T22:12:45.628Z,2.47
2018-10-04T22:15:14.693Z,2.33
2018-10-04T22:17:44.038Z,2.70
2018-10-04T22:20:13.218Z,3.47
2018-10-04T22:22:42.281Z,1.90
2018-10-04T22:25:11.465Z,2.40
2018-10-04T22:27:40.521Z,3.33
2018-10-04T22:30:10.873Z,2.47
2018-10-04T22:32:40.516Z,2.23
2018-10-04T22:35:09.575Z,2.60
2018-10-04T22:37:38.871Z,3.60
2018-10-04T22:40:08.074Z,2.57
2018-10-04T22:42:37.222Z,2.30
2018-10-04T22:45:06.494Z,2.70
2018-10-04T22:47:35.635Z,3.13
2018-10-04T22:50:04.745Z,2.60
2018-10-04T22:52:33.733Z,3.20
2018-10-04T22:55:02.723Z,2.67
2018-10-04T22:57:32.405Z,2.53
2018-10-04T23:00:01.421Z,3.27
2018-10-04T23:02:30.459Z,3.43
2018-10-04T23:04:59.483Z,2.20
2018-10-04T23:07:28.564Z,3.63
2018-10-04T23:09:57.592Z,2.43
2018-10-04T23:12:26.787Z,2.70
2018-10-04T23:14:55.862Z,2.57
2018-10-04T23:17:24.910Z,2.33
2018-10-04T23:19:53.977Z,2.50
2018-10-04T23:22:23.035Z,3.60
2018-10-04T23:24:52.219Z,2.73
2018-10-04T23:27:22.132Z,2.87
2018-10-04T23:29:51.255Z,3.10
2018-10-04T23:32:20.270Z,3.13
2018-10-04T23:34:49.323Z,4.00
2018-10-04T23:37:18.294Z,3.70
2018-10-04T23:39:47.276Z,3.43
2018-10-04T23:42:16.411Z,3.33
2018-10-04T23:44:45.411Z,2.80
2018-10-04T23:47:14.431Z,3.33
2018-10-04T23:49:43.407Z,3.03
2018-10-04T23:52:12.647Z,3.17
2018-10-04T23:54:41.679Z,3.20
2018-10-04T23:57:10.684Z,2.80
2018-10-04T23:59:39.787Z,2.80
